Time;durP1;ratioP1;P1;durP2;ratioP2;P2;SDS_P1;SDS_P2;PMS_P1;PMS_P2;Temp;Humidity;BMP_temperature;BMP_pressure;BME280_temperature;BME280_humidity;BME280_pressure;Samples;Min_cycle;Max_cycle;Signal;HPM_P1;HPM_P2
2022/02/18 00:00:38;;;;;;;12.07;3.60;;;;;;;6.23;97.47;100902.31;2011832;29;20026;-62
2022/02/18 00:01:38;;;;;;;11.63;3.07;;;;;;;6.21;97.29;100901.50;2018871;29;20402;-61
2022/02/18 00:02:38;;;;;;;12.00;2.97;;;;;;;6.20;97.63;100907.56;2011164;29;20025;-63
2022/02/18 00:03:40;;;;;;;10.50;2.73;;;;;;;6.18;97.87;100898.09;2011245;29;20061;-64
2022/02/18 00:04:41;;;;;;;17.27;4.00;;;;;;;6.18;97.13;100903.28;2011777;29;20025;-63
2022/02/18 00:05:43;;;;;;;12.00;2.87;;;;;;;6.17;97.46;100898.97;2018880;29;20073;-64
2022/02/18 00:06:43;;;;;;;15.25;3.17;;;;;;;6.17;97.06;100893.78;2018686;29;20538;-62
2022/02/18 00:07:43;;;;;;;15.80;5.03;;;;;;;6.17;97.10;100904.13;2011633;29;20037;-63
2022/02/18 00:08:45;;;;;;;16.67;3.87;;;;;;;6.18;97.46;100895.50;2011758;29;20025;-64
2022/02/18 00:09:46;;;;;;;20.08;3.67;;;;;;;6.18;97.07;100884.28;2011648;29;20305;-63
2022/02/18 00:10:46;;;;;;;13.23;3.47;;;;;;;6.18;96.84;100890.31;2011744;29;20053;-62
2022/02/18 00:11:47;;;;;;;13.50;3.20;;;;;;;6.19;97.27;100888.56;2011626;29;20021;-65
2022/02/18 00:12:47;;;;;;;14.47;3.87;;;;;;;6.17;97.00;100888.59;2018748;29;20036;-64
2022/02/18 00:13:47;;;;;;;11.87;2.80;;;;;;;6.14;97.04;100888.69;2018771;29;20514;-61
2022/02/18 00:14:47;;;;;;;16.00;4.63;;;;;;;6.16;97.19;100893.84;2011779;29;20037;-66
2022/02/18 00:15:48;;;;;;;10.17;2.43;;;;;;;6.16;97.34;100896.44;2011685;29;20124;-64
2022/02/18 00:16:48;;;;;;;13.43;3.30;;;;;;;6.18;97.20;100892.06;2011737;29;20040;-64
2022/02/18 00:17:48;;;;;;;15.27;3.33;;;;;;;6.17;96.43;100888.59;2011614;29;20067;-63
2022/02/18 00:18:48;;;;;;;9.27;2.40;;;;;;;6.18;97.01;100882.53;2011697;29;20041;-65
2022/02/18 00:19:49;;;;;;;10.83;2.70;;;;;;;6.21;96.30;100875.56;2011700;29;20033;-62
2022/02/18 00:20:49;;;;;;;18.07;3.77;;;;;;;6.21;96.68;100868.66;2011032;29;20183;-62
2022/02/18 00:21:49;;;;;;;9.77;2.50;;;;;;;6.22;96.69;100874.72;2011037;29;20049;-64
2022/02/18 00:22:50;;;;;;;14.43;3.30;;;;;;;6.22;96.07;100869.53;2011667;29;20105;-63
2022/02/18 00:23:50;;;;;;;14.77;3.10;;;;;;;6.23;95.80;100876.41;2011616;29;20041;-64
2022/02/18 00:24:50;;;;;;;10.00;2.57;;;;;;;6.22;95.93;100870.34;2011661;29;20443;-65
2022/02/18 00:25:50;;;;;;;9.17;2.47;;;;;;;6.23;95.98;100871.22;2011666;29;20113;-62
2022/02/18 00:26:51;;;;;;;11.53;3.93;;;;;;;6.23;95.30;100869.47;2011736;29;20085;-64
2022/02/18 00:27:51;;;;;;;9.77;2.73;;;;;;;6.23;95.75;100879.00;2011611;29;20048;-63
2022/02/18 00:28:52;;;;;;;13.57;2.40;;;;;;;6.22;95.41;100879.88;2018690;29;20120;-64
2022/02/18 00:29:52;;;;;;;14.43;3.30;;;;;;;6.21;96.03;100881.63;2010958;29;20029;-65
2022/02/18 00:30:52;;;;;;;12.50;3.07;;;;;;;6.18;96.19;100871.31;2010937;29;20330;-63
2022/02/18 00:31:53;;;;;;;11.40;2.73;;;;;;;6.18;96.04;100874.78;2011607;29;20040;-64
2022/02/18 00:32:53;;;;;;;16.00;3.50;;;;;;;6.18;95.34;100869.59;2011587;29;20158;-63
2022/02/18 00:33:53;;;;;;;9.40;4.13;;;;;;;6.20;95.38;100871.28;2011584;29;20025;-66
2022/02/18 00:34:54;;;;;;;10.60;2.93;;;;;;;6.21;95.28;100865.19;2011633;29;20029;-63
2022/02/18 00:35:54;;;;;;;8.73;3.20;;;;;;;6.19;94.97;100865.25;2011532;29;20041;-65
2022/02/18 00:36:54;;;;;;;10.77;2.67;;;;;;;6.22;95.38;100856.56;2011590;29;20463;-61
2022/02/18 00:37:55;;;;;;;13.93;2.80;;;;;;;6.23;95.15;100858.25;2011561;29;20036;-60
2022/02/18 00:38:55;;;;;;;13.23;3.08;;;;;;;6.27;95.20;100859.88;2011523;29;20048;-63
2022/02/18 00:39:59;;;;;;;10.07;2.67;;;;;;;6.30;94.48;100865.00;2011516;29;20154;-62
2022/02/18 00:40:59;;;;;;;12.25;2.88;;;;;;;6.29;94.71;100865.88;2011494;29;20113;-63
2022/02/18 00:42:00;;;;;;;8.80;2.43;;;;;;;6.30;94.43;100862.41;2011490;29;20037;-62
2022/02/18 00:43:00;;;;;;;14.77;2.57;;;;;;;6.31;94.50;100858.91;2011547;29;20037;-64
2022/02/18 00:44:00;;;;;;;12.33;2.83;;;;;;;6.33;93.88;100859.72;2011504;29;20033;-61
2022/02/18 00:45:00;;;;;;;11.70;3.03;;;;;;;6.34;93.52;100861.44;2011403;29;20045;-63
2022/02/18 00:46:01;;;;;;;11.47;3.00;;;;;;;6.32;93.88;100865.81;2018427;29;20044;-65
2022/02/18 00:47:01;;;;;;;9.77;2.20;;;;;;;6.33;94.32;100857.13;2018552;29;20044;-65
2022/02/18 00:48:02;;;;;;;13.70;2.33;;;;;;;6.30;94.22;100854.63;2011371;29;20113;-63
2022/02/18 00:49:02;;;;;;;10.38;2.90;;;;;;;6.30;93.66;100849.44;2018542;29;20423;-62
2022/02/18 00:50:03;;;;;;;16.10;2.93;;;;;;;6.32;93.30;100855.44;2010838;29;20100;-64
2022/02/18 00:51:05;;;;;;;9.85;2.63;;;;;;;6.32;93.77;100850.25;2010890;29;20037;-63
2022/02/18 00:52:06;;;;;;;9.40;2.60;;;;;;;6.32;93.23;100855.44;2011483;29;20085;-65
2022/02/18 00:53:07;;;;;;;11.40;2.92;;;;;;;6.30;93.95;100852.03;2011535;29;20081;-63
2022/02/18 00:54:07;;;;;;;11.98;3.08;;;;;;;6.31;93.34;100858.91;2011451;29;20021;-62
2022/02/18 00:55:08;;;;;;;9.30;2.70;;;;;;;6.31;93.57;100853.75;2011467;29;20030;-62
2022/02/18 00:56:08;;;;;;;15.50;2.63;;;;;;;6.32;92.98;100855.44;2011520;29;20029;-62
2022/02/18 00:57:10;;;;;;;13.43;3.57;;;;;;;6.34;93.78;100853.66;2018428;29;20115;-64
2022/02/18 00:58:10;;;;;;;12.73;2.70;;;;;;;6.35;93.26;100850.19;2018492;29;20081;-61
2022/02/18 00:59:11;;;;;;;13.17;3.70;;;;;;;6.37;93.03;100850.16;2018485;29;20514;-61
2022/02/18 01:00:15;;;;;;;9.60;2.50;;;;;;;6.39;92.48;100851.81;2018517;29;20068;-65
2022/02/18 01:01:16;;;;;;;12.05;2.30;;;;;;;6.38;92.63;100847.53;2010754;29;20377;-62
2022/02/18 01:02:16;;;;;;;11.37;2.73;;;;;;;6.40;92.94;100843.13;2010791;29;20041;-61
2022/02/18 01:03:18;;;;;;;11.47;2.80;;;;;;;6.43;92.58;100842.19;2011348;29;20025;-62
2022/02/18 01:04:18;;;;;;;10.40;2.90;;;;;;;6.45;93.22;100845.63;2011329;29;20528;-63
2022/02/18 01:05:19;;;;;;;11.63;2.33;;;;;;;6.44;92.86;100844.75;2011402;29;20312;-62
2022/02/18 01:06:19;;;;;;;13.37;2.73;;;;;;;6.43;92.91;100845.66;2011288;29;20077;-63
2022/02/18 01:07:19;;;;;;;12.88;2.58;;;;;;;6.44;93.37;100833.56;2011351;29;20052;-63
2022/02/18 01:08:20;;;;;;;11.47;3.00;;;;;;;6.41;92.54;100834.50;2018337;29;20100;-63
2022/02/18 01:09:20;;;;;;;9.93;2.53;;;;;;;6.41;93.39;100831.91;2009698;29;20034;-61
2022/02/18 01:10:21;;;;;;;14.98;2.92;;;;;;;6.42;93.65;100825.81;2010579;29;20064;-64
2022/02/18 01:11:21;;;;;;;13.67;2.90;;;;;;;6.42;93.49;100831.00;2011190;29;20033;-60
2022/02/18 01:12:22;;;;;;;10.30;2.78;;;;;;;6.47;93.34;100832.63;2011250;29;20040;-60
2022/02/18 01:13:22;;;;;;;16.10;4.78;;;;;;;6.49;93.50;100825.63;2011265;29;20476;-63
2022/02/18 01:14:24;;;;;;;14.03;2.47;;;;;;;6.49;93.24;100817.84;2018294;29;20037;-64
2022/02/18 01:15:24;;;;;;;10.27;2.78;;;;;;;6.46;93.72;100816.19;2010564;29;20025;-62
2022/02/18 01:16:25;;;;;;;13.23;3.03;;;;;;;6.48;93.54;100818.75;2010709;29;20057;-62
2022/02/18 01:17:25;;;;;;;15.50;3.00;;;;;;;6.48;93.81;100816.16;2011233;29;20502;-64
2022/02/18 01:18:26;;;;;;;10.43;2.40;;;;;;;6.49;93.98;100823.03;2011252;29;20077;-61
2022/02/18 01:19:26;;;;;;;9.40;2.93;;;;;;;6.49;93.25;100815.25;2011216;29;20277;-60
2022/02/18 01:20:26;;;;;;;15.33;2.87;;;;;;;6.51;93.43;100808.31;2011250;29;20061;-63
2022/02/18 01:21:27;;;;;;;9.17;2.20;;;;;;;6.51;93.88;100810.91;2018104;29;20489;-63
2022/02/18 01:22:27;;;;;;;13.90;2.93;;;;;;;6.51;93.33;100810.91;2010564;29;20066;-63
2022/02/18 01:23:27;;;;;;;12.93;3.53;;;;;;;6.50;94.08;100815.22;2010571;29;20025;-64
2022/02/18 01:24:27;;;;;;;14.27;3.33;;;;;;;6.50;94.26;100806.63;2011163;29;20045;-64
2022/02/18 01:25:28;;;;;;;13.33;2.60;;;;;;;6.48;94.26;100805.78;2011167;29;20026;-61
2022/02/18 01:26:28;;;;;;;13.50;2.83;;;;;;;6.48;93.89;100801.47;2011178;29;20025;-65
2022/02/18 01:27:28;;;;;;;8.17;2.50;;;;;;;6.47;94.13;100811.88;2011184;29;20029;-64
2022/02/18 01:28:29;;;;;;;14.20;3.27;;;;;;;6.47;94.57;100806.69;2011136;29;20386;-60
2022/02/18 01:29:30;;;;;;;20.40;3.85;;;;;;;6.50;94.02;100811.81;2011087;29;20069;-64
2022/02/18 01:30:30;;;;;;;13.77;3.27;;;;;;;6.50;94.26;100809.22;2011186;29;20033;-65
2022/02/18 01:31:31;;;;;;;12.23;2.97;;;;;;;6.49;93.76;100804.91;2011046;29;20377;-64
2022/02/18 01:32:31;;;;;;;14.68;3.15;;;;;;;6.49;94.45;100800.56;2018196;29;20041;-63
2022/02/18 01:33:32;;;;;;;16.05;3.35;;;;;;;6.51;94.21;100803.13;2018104;29;20037;-60
2022/02/18 01:34:32;;;;;;;16.30;3.27;;;;;;;6.52;94.31;100803.09;2011179;29;20088;-63
2022/02/18 01:35:32;;;;;;;12.40;2.80;;;;;;;6.53;94.51;100803.94;2011071;29;20369;-63
2022/02/18 01:36:33;;;;;;;14.80;3.30;;;;;;;6.51;94.79;100810.91;2011085;29;20036;-63
2022/02/18 01:37:33;;;;;;;14.10;3.37;;;;;;;6.49;94.70;100800.56;2011022;29;20018;-63
2022/02/18 01:38:33;;;;;;;14.63;3.00;;;;;;;6.48;94.77;100798.03;2011138;29;20022;-63
2022/02/18 01:39:34;;;;;;;15.63;3.33;;;;;;;6.47;95.09;100796.31;2011131;29;20028;-60
2022/02/18 01:40:34;;;;;;;10.93;2.58;;;;;;;6.49;94.94;100804.91;2011134;29;20029;-63
2022/02/18 01:41:34;;;;;;;14.57;2.97;;;;;;;6.51;94.95;100805.72;2011079;29;20037;-62
2022/02/18 01:42:35;;;;;;;13.07;3.53;;;;;;;6.50;95.01;100798.84;2011151;29;20065;-61
2022/02/18 01:43:36;;;;;;;13.77;2.70;;;;;;;6.52;95.06;100794.44;2011052;29;20084;-61
2022/02/18 01:44:38;;;;;;;13.07;3.10;;;;;;;6.53;95.18;100798.75;2011051;29;20060;-64
2022/02/18 01:45:38;;;;;;;18.30;3.92;;;;;;;6.52;94.82;100800.50;2010192;29;20150;-64
2022/02/18 01:46:39;;;;;;;18.40;3.42;;;;;;;6.51;95.27;100797.94;2010417;29;20083;-62
2022/02/18 01:47:39;;;;;;;17.47;4.23;;;;;;;6.50;95.48;100799.69;2017821;29;20530;-61
2022/02/18 01:48:39;;;;;;;12.90;2.77;;;;;;;6.50;95.47;100788.47;2018079;29;20092;-64
2022/02/18 01:49:40;;;;;;;15.80;3.60;;;;;;;6.51;95.64;100784.97;2010986;29;20557;-64
2022/02/18 01:50:42;;;;;;;12.25;3.13;;;;;;;6.50;95.92;100780.69;2010310;29;20030;-64
2022/02/18 01:51:42;;;;;;;13.45;4.68;;;;;;;6.51;95.89;100777.19;2010281;29;20026;-62
2022/02/18 01:52:54;;;;;;;20.23;3.03;;;;;;;6.56;95.88;100781.38;2011031;29;20504;-60
2022/02/18 01:53:55;;;;;;;18.92;4.35;;;;;;;6.57;95.71;100777.06;2010908;29;20079;-64
2022/02/18 01:54:56;;;;;;;14.00;3.13;;;;;;;6.56;95.95;100780.50;2010981;29;20035;-62
2022/02/18 01:55:56;;;;;;;13.15;2.65;;;;;;;6.57;95.53;100772.69;2010959;29;20026;-61
2022/02/18 01:56:56;;;;;;;18.27;4.47;;;;;;;6.57;95.87;100770.09;2010934;29;20056;-62
2022/02/18 01:57:59;;;;;;;12.37;3.13;;;;;;;6.59;95.85;100771.78;2010957;29;20566;-63
2022/02/18 01:58:59;;;;;;;15.45;3.50;;;;;;;6.61;95.99;100763.13;2010915;29;20536;-60
2022/02/18 01:59:59;;;;;;;15.00;2.83;;;;;;;6.65;95.75;100759.53;2017879;29;20102;-61
2022/02/18 02:00:59;;;;;;;12.83;3.67;;;;;;;6.65;95.91;100759.53;2017956;29;20100;-63
2022/02/18 02:02:01;;;;;;;19.10;4.10;;;;;;;6.64;95.85;100749.22;2010854;29;20029;-63
2022/02/18 02:03:04;;;;;;;17.27;3.25;;;;;;;6.63;96.29;100757.84;2010910;29;20290;-63
2022/02/18 02:04:06;;;;;;;16.60;3.55;;;;;;;6.61;96.46;100752.75;2010835;29;20121;-64
2022/02/18 02:05:07;;;;;;;14.43;3.75;;;;;;;6.60;96.65;100745.81;2010860;29;20121;-60
2022/02/18 02:06:08;;;;;;;14.63;3.10;;;;;;;6.59;95.96;100741.53;2010868;29;20576;-63
2022/02/18 02:07:09;;;;;;;;;;;;;;;6.60;95.57;100740.63;2010537;29;20041;-62
2022/02/18 02:08:11;;;;;;;8.25;2.22;;;;;;;6.59;96.24;100738.94;2010207;29;19959;-62
2022/02/18 02:09:14;;;;;;;14.93;3.35;;;;;;;6.59;96.51;100744.13;2010892;29;20048;-63
2022/02/18 02:10:15;;;;;;;17.40;3.78;;;;;;;6.58;96.67;100739.84;2010729;29;20022;-62
2022/02/18 02:11:15;;;;;;;19.88;3.63;;;;;;;6.58;96.24;100742.44;2010755;29;20088;-60
2022/02/18 02:12:16;;;;;;;16.20;3.73;;;;;;;6.61;96.49;100749.28;2017817;29;20036;-62
2022/02/18 02:13:37;;;;;;;9.70;2.87;;;;;;;6.64;97.12;100750.03;2017934;29;20037;-61
2022/02/18 02:14:37;;;;;;;10.48;3.15;;;;;;;6.64;96.69;100749.22;2010847;29;20033;-61
2022/02/18 02:15:38;;;;;;;16.03;3.17;;;;;;;6.62;96.73;100745.78;2010735;29;20379;-64
2022/02/18 02:16:40;;;;;;;15.30;2.70;;;;;;;6.62;96.97;100743.19;2017943;29;20033;-61
2022/02/18 02:17:41;;;;;;;16.80;3.95;;;;;;;6.62;97.04;100743.19;2017587;29;20036;-63
2022/02/18 02:18:41;;;;;;;14.50;3.50;;;;;;;6.60;96.97;100743.22;2010788;29;20040;-63
2022/02/18 02:19:41;;;;;;;24.30;4.40;;;;;;;6.62;97.27;100743.19;2010807;29;20089;-63
2022/02/18 02:20:42;;;;;;;20.50;4.67;;;;;;;6.63;97.29;100745.75;2010590;29;20483;-61
2022/02/18 02:21:50;;;;;;;13.23;3.03;;;;;;;6.64;96.93;100739.66;2010782;29;20017;-62
2022/02/18 02:22:50;;;;;;;11.93;3.47;;;;;;;6.62;97.37;100743.19;2010750;29;20031;-63
2022/02/18 02:23:51;;;;;;;23.57;4.83;;;;;;;6.57;97.15;100735.56;2010703;29;20389;-62
2022/02/18 02:24:51;;;;;;;14.30;3.33;;;;;;;6.56;97.48;100737.28;2010768;29;20028;-62
2022/02/18 02:25:51;;;;;;;17.57;3.67;;;;;;;6.58;98.08;100724.28;2010771;29;20041;-61
2022/02/18 02:26:52;;;;;;;17.47;5.17;;;;;;;6.58;98.01;100721.69;2010745;29;20057;-60
2022/02/18 02:27:52;;;;;;;17.73;3.57;;;;;;;6.61;98.17;100720.75;2010682;29;20044;-63
2022/02/18 02:28:52;;;;;;;14.17;3.13;;;;;;;6.63;97.77;100719.81;2010701;29;20038;-62
2022/02/18 02:29:52;;;;;;;16.63;4.00;;;;;;;6.62;97.59;100712.94;2010669;29;20032;-62
2022/02/18 02:30:53;;;;;;;19.67;4.50;;;;;;;6.60;97.70;100709.53;2010686;29;20049;-64
2022/02/18 02:31:56;;;;;;;17.13;3.80;;;;;;;6.60;97.83;100709.53;2010666;29;20057;-63
2022/02/18 02:32:56;;;;;;;18.45;3.28;;;;;;;6.58;98.40;100706.13;2010703;29;20390;-62
2022/02/18 02:33:56;;;;;;;20.03;3.67;;;;;;;6.57;98.34;100701.84;2010599;29;20033;-63
2022/02/18 02:34:57;;;;;;;26.13;4.33;;;;;;;6.57;98.12;100694.91;2010719;29;20401;-63
2022/02/18 02:35:57;;;;;;;18.50;4.10;;;;;;;6.58;98.25;100690.59;2010727;29;20033;-63
2022/02/18 02:36:57;;;;;;;21.23;5.00;;;;;;;6.57;98.76;100694.91;2010655;29;20073;-61
2022/02/18 02:37:58;;;;;;;16.93;3.77;;;;;;;6.57;98.20;100683.72;2010621;29;20487;-62
2022/02/18 02:38:58;;;;;;;21.73;4.63;;;;;;;6.57;98.57;100683.72;2010666;29;20034;-64
2022/02/18 02:39:58;;;;;;;28.37;4.13;;;;;;;6.56;98.56;100681.97;2010646;29;20428;-63
2022/02/18 02:40:58;;;;;;;15.80;3.93;;;;;;;6.57;99.14;100679.34;2017671;29;20038;-63
2022/02/18 02:42:00;;;;;;;19.60;4.53;;;;;;;6.58;99.32;100675.03;2017808;29;20510;-64
2022/02/18 02:43:01;;;;;;;16.55;3.63;;;;;;;6.60;98.75;100672.38;2010650;29;20061;-62
2022/02/18 02:44:01;;;;;;;18.55;4.70;;;;;;;6.62;98.55;100670.59;2010670;29;20033;-64
2022/02/18 02:45:02;;;;;;;20.67;3.50;;;;;;;6.62;98.50;100665.41;2017678;29;20145;-63
2022/02/18 02:46:03;;;;;;;15.20;4.15;;;;;;;6.64;98.73;100664.47;2017631;29;20442;-62
2022/02/18 02:47:03;;;;;;;13.97;3.37;;;;;;;6.66;98.62;100661.81;2010609;29;20069;-61
2022/02/18 02:48:05;;;;;;;24.77;4.90;;;;;;;6.66;98.81;100654.03;2010494;29;20076;-64
2022/02/18 02:49:05;;;;;;;14.27;3.40;;;;;;;6.66;98.91;100652.31;2010017;29;20037;-61
2022/02/18 02:50:06;;;;;;;14.83;3.17;;;;;;;6.68;98.94;100642.72;2009936;29;20022;-63
2022/02/18 02:51:06;;;;;;;15.25;3.78;;;;;;;6.68;98.93;100642.72;2017639;29;20551;-60
2022/02/18 02:52:07;;;;;;;26.17;4.07;;;;;;;6.67;98.60;100641.03;2017589;29;20036;-62
2022/02/18 02:53:07;;;;;;;15.97;4.43;;;;;;;6.66;98.62;100638.50;2009953;29;20025;-62
2022/02/18 02:54:07;;;;;;;25.10;4.20;;;;;;;6.69;98.67;100634.06;2009929;29;20098;-63
2022/02/18 02:55:10;;;;;;;18.90;3.67;;;;;;;6.68;98.53;100640.13;2010605;29;20037;-61
2022/02/18 02:56:11;;;;;;;24.20;3.67;;;;;;;6.68;98.71;100629.75;2010617;29;20484;-61
2022/02/18 02:57:11;;;;;;;16.13;4.53;;;;;;;6.70;98.76;100622.81;2010551;29;20040;-62
2022/02/18 02:58:11;;;;;;;19.37;4.07;;;;;;;6.68;99.11;100614.19;2010567;29;20041;-62
2022/02/18 02:59:12;;;;;;;17.43;3.40;;;;;;;6.67;98.73;100612.50;2010643;29;20448;-64
2022/02/18 03:00:13;;;;;;;17.87;3.83;;;;;;;6.67;99.29;100611.69;2010504;29;20058;-63
2022/02/18 03:01:13;;;;;;;20.05;4.82;;;;;;;6.63;99.17;100608.31;2010595;29;20111;-63
2022/02/18 03:02:14;;;;;;;20.63;5.13;;;;;;;6.63;99.07;100603.13;2010587;29;20026;-63
2022/02/18 03:03:14;;;;;;;18.23;3.43;;;;;;;6.62;98.72;100609.22;2010572;29;20033;-63
2022/02/18 03:04:14;;;;;;;21.13;3.90;;;;;;;6.61;99.40;100602.34;2010635;29;20076;-61
2022/02/18 03:05:15;;;;;;;23.60;4.13;;;;;;;6.61;99.48;100599.75;2010592;29;20154;-63
2022/02/18 03:06:15;;;;;;;17.27;4.25;;;;;;;6.63;98.96;100603.13;2009974;29;20094;-63
2022/02/18 03:07:15;;;;;;;16.50;4.03;;;;;;;6.62;98.86;100601.44;2010084;29;20029;-62
2022/02/18 03:08:16;;;;;;;25.47;4.53;;;;;;;6.65;99.72;100603.94;2010534;29;20056;-61
2022/02/18 03:09:16;;;;;;;16.13;4.70;;;;;;;6.67;99.25;100604.72;2017556;29;20065;-62
2022/02/18 03:10:16;;;;;;;14.40;3.33;;;;;;;6.67;99.09;100599.53;2017537;29;20052;-62
2022/02/18 03:11:17;;;;;;;25.73;3.87;;;;;;;6.68;98.63;100603.81;2010467;29;20036;-63
2022/02/18 03:12:17;;;;;;;26.85;5.45;;;;;;;6.67;99.11;100596.94;2009839;29;20054;-61
2022/02/18 03:13:17;;;;;;;19.07;3.50;;;;;;;6.69;98.70;100595.19;2010004;29;20032;-63
2022/02/18 03:14:18;;;;;;;20.43;4.33;;;;;;;6.67;99.37;100591.75;2010617;29;20029;-61
2022/02/18 03:15:18;;;;;;;15.80;3.87;;;;;;;6.68;99.37;100593.44;2010490;29;20040;-65
2022/02/18 03:16:20;;;;;;;21.83;4.93;;;;;;;6.66;99.08;100595.25;2010444;29;20399;-63
2022/02/18 03:17:21;;;;;;;17.63;4.45;;;;;;;6.65;99.22;100592.72;2010486;29;20021;-63
2022/02/18 03:18:22;;;;;;;17.75;4.25;;;;;;;6.64;98.78;100589.25;2010487;29;20094;-63
2022/02/18 03:19:23;;;;;;;19.17;3.90;;;;;;;6.62;98.92;100585.00;2010466;29;20057;-63
2022/02/18 03:20:23;;;;;;;16.73;3.60;;;;;;;6.59;99.56;100585.97;2010461;29;20045;-64
2022/02/18 03:21:24;;;;;;;15.20;3.13;;;;;;;6.59;99.28;100574.72;2010433;29;20029;-63
2022/02/18 03:22:24;;;;;;;21.60;4.67;;;;;;;6.58;99.53;100571.31;2010405;29;20294;-64
2022/02/18 03:23:24;;;;;;;17.60;3.70;;;;;;;6.57;99.87;100565.25;2010401;29;20052;-63
2022/02/18 03:24:25;;;;;;;19.40;4.37;;;;;;;6.57;100.00;100562.66;2010501;29;20109;-63
2022/02/18 03:25:25;;;;;;;14.67;4.30;;;;;;;6.57;99.48;100554.06;2010504;29;20026;-64
2022/02/18 03:26:26;;;;;;;26.65;4.53;;;;;;;6.57;99.53;100548.88;2010502;29;20026;-63
2022/02/18 03:27:26;;;;;;;19.67;4.20;;;;;;;6.56;100.00;100547.16;2010438;29;20033;-64
2022/02/18 03:28:26;;;;;;;18.00;4.07;;;;;;;6.54;100.00;100541.19;2010435;29;20033;-65
2022/02/18 03:29:27;;;;;;;14.40;4.00;;;;;;;6.53;99.64;100542.06;2010404;29;20030;-63
2022/02/18 03:30:27;;;;;;;19.77;4.13;;;;;;;6.54;99.70;100543.78;2010487;29;20040;-64
2022/02/18 03:31:27;;;;;;;21.20;4.80;;;;;;;6.53;99.64;100542.06;2010404;29;20030;-64
2022/02/18 03:32:27;;;;;;;19.47;4.80;;;;;;;6.54;100.00;100546.38;2017526;29;20048;-64
2022/02/18 03:33:27;;;;;;;19.43;4.50;;;;;;;6.53;100.00;100536.88;2019060;29;20459;-63
2022/02/18 03:34:28;;;;;;;15.10;3.70;;;;;;;6.53;99.57;100531.69;2012086;29;20025;-63
2022/02/18 03:35:28;;;;;;;17.03;3.77;;;;;;;6.53;99.75;100536.88;2011900;29;20030;-64
2022/02/18 03:36:29;;;;;;;20.53;4.57;;;;;;;6.52;99.80;100537.78;2012016;29;20033;-63
2022/02/18 03:37:29;;;;;;;14.37;3.33;;;;;;;6.52;100.00;100535.19;2011964;29;20511;-63
2022/02/18 03:38:29;;;;;;;20.40;4.37;;;;;;;6.52;99.77;100535.19;2019035;29;20029;-63
2022/02/18 03:39:30;;;;;;;23.43;4.90;;;;;;;6.53;99.80;100529.09;2019065;29;20031;-64
2022/02/18 03:40:30;;;;;;;24.10;4.33;;;;;;;6.51;100.00;100528.31;2011933;29;20029;-63
2022/02/18 03:41:32;;;;;;;16.58;3.97;;;;;;;6.50;99.91;100531.81;2011893;29;20018;-63
2022/02/18 03:42:32;;;;;;;19.55;4.25;;;;;;;6.51;100.00;100525.72;2012011;29;20029;-64
2022/02/18 03:43:33;;;;;;;18.80;3.67;;;;;;;6.50;100.00;100526.63;2011843;29;20029;-64
2022/02/18 03:44:35;;;;;;;23.27;4.95;;;;;;;6.51;100.00;100523.97;2011958;29;20029;-63
2022/02/18 03:45:35;;;;;;;18.13;4.45;;;;;;;6.53;100.00;100516.13;2011971;29;20502;-64
2022/02/18 03:46:35;;;;;;;22.40;4.13;;;;;;;6.54;99.81;100525.63;2011925;29;20024;-64
2022/02/18 03:47:36;;;;;;;19.90;4.53;;;;;;;6.52;99.32;100522.22;2011631;29;20734;-63
2022/02/18 03:48:36;;;;;;;17.60;4.53;;;;;;;6.49;100.00;100532.69;2011918;29;20104;-64
2022/02/18 03:49:36;;;;;;;19.13;4.60;;;;;;;6.47;100.00;100524.13;2011879;29;20108;-64
2022/02/18 03:50:37;;;;;;;12.35;2.97;;;;;;;6.44;100.00;100528.47;2011973;29;20463;-64
2022/02/18 03:51:37;;;;;;;24.10;4.65;;;;;;;6.45;100.00;100534.53;2018814;29;20085;-64
2022/02/18 03:52:38;;;;;;;14.63;3.80;;;;;;;6.44;100.00;100532.84;2019022;29;20017;-64
2022/02/18 03:53:38;;;;;;;19.30;3.70;;;;;;;6.43;100.00;100536.31;2011959;29;20050;-62
2022/02/18 03:54:38;;;;;;;18.83;3.77;;;;;;;6.45;100.00;100529.34;2011812;29;20018;-63
2022/02/18 03:55:38;;;;;;;16.57;3.57;;;;;;;6.49;100.00;100527.50;2011779;29;20575;-63
2022/02/18 03:56:39;;;;;;;19.67;4.23;;;;;;;6.49;100.00;100523.16;2011889;29;20134;-64
2022/02/18 03:57:39;;;;;;;14.40;5.10;;;;;;;6.49;100.00;100524.91;2011168;29;20089;-64
2022/02/18 03:58:40;;;;;;;21.73;5.03;;;;;;;6.50;100.00;100511.06;2011302;29;20099;-62
2022/02/18 03:59:40;;;;;;;16.42;3.65;;;;;;;6.50;100.00;100511.91;2011724;29;20503;-63
2022/02/18 04:00:41;;;;;;;24.23;5.63;;;;;;;6.50;100.00;100511.06;2011872;29;20395;-63
2022/02/18 04:01:41;;;;;;;12.53;3.13;;;;;;;6.49;100.00;100509.34;2011805;29;20459;-62
2022/02/18 04:02:41;;;;;;;13.20;3.57;;;;;;;6.48;100.00;100508.50;2011802;29;20325;-61
2022/02/18 04:03:43;;;;;;;20.27;3.60;;;;;;;6.50;100.00;100491.16;2011792;29;20476;-62
2022/02/18 04:04:44;;;;;;;17.70;4.13;;;;;;;6.51;100.00;100486.81;2011756;29;20290;-60
2022/02/18 04:05:44;;;;;;;27.53;5.43;;;;;;;6.50;99.83;100483.38;2011813;29;20104;-63
2022/02/18 04:06:44;;;;;;;19.17;5.40;;;;;;;6.49;100.00;100480.81;2011767;29;20044;-62
2022/02/18 04:07:45;;;;;;;18.23;3.97;;;;;;;6.50;100.00;100479.94;2011805;29;20018;-63
2022/02/18 04:08:45;;;;;;;18.83;4.17;;;;;;;6.50;100.00;100472.19;2018877;29;20025;-63
2022/02/18 04:09:45;;;;;;;17.00;5.10;;;;;;;6.51;99.67;100466.94;2018898;29;20021;-63
2022/02/18 04:10:45;;;;;;;20.57;4.67;;;;;;;6.52;100.00;100458.25;2011140;29;20405;-62
2022/02/18 04:11:46;;;;;;;22.40;4.13;;;;;;;6.53;100.00;100459.09;2011023;29;20112;-62
2022/02/18 04:12:46;;;;;;;13.67;3.40;;;;;;;6.52;99.71;100441.84;2011739;29;20097;-63
2022/02/18 04:13:46;;;;;;;12.80;3.97;;;;;;;6.51;99.36;100443.63;2011729;29;20032;-63
2022/02/18 04:14:46;;;;;;;19.60;5.00;;;;;;;6.51;99.65;100442.75;2011775;29;20025;-62
2022/02/18 04:15:49;;;;;;;18.27;4.70;;;;;;;6.49;99.75;100436.75;2011713;29;20033;-60
2022/02/18 04:16:49;;;;;;;23.98;4.80;;;;;;;6.51;99.92;100437.56;2011799;29;20029;-60
2022/02/18 04:17:49;;;;;;;16.60;4.23;;;;;;;6.52;99.56;100436.66;2011683;29;20100;-63
2022/02/18 04:18:51;;;;;;;18.17;3.87;;;;;;;6.54;99.34;100434.88;2011042;29;20022;-63
2022/02/18 04:19:51;;;;;;;12.10;4.40;;;;;;;6.51;99.03;100422.00;2011192;29;20096;-64
2022/02/18 04:20:52;;;;;;;12.20;3.63;;;;;;;6.52;99.12;100421.09;2011830;29;20345;-61
2022/02/18 04:21:52;;;;;;;16.63;3.37;;;;;;;6.53;98.70;100412.44;2011730;29;20586;-61
2022/02/18 04:22:52;;;;;;;18.07;4.53;;;;;;;6.54;98.42;100408.97;2011707;29;20033;-63
2022/02/18 04:23:52;;;;;;;16.30;5.27;;;;;;;6.55;98.99;100410.66;2011626;29;20108;-62
2022/02/18 04:24:53;;;;;;;18.03;3.97;;;;;;;6.55;98.79;100401.13;2011751;29;20064;-62
2022/02/18 04:25:53;;;;;;;15.80;3.50;;;;;;;6.54;98.79;100399.41;2011644;29;20029;-62
2022/02/18 04:26:53;;;;;;;23.30;4.47;;;;;;;6.52;99.00;100390.00;2011694;29;20138;-63
2022/02/18 04:27:59;;;;;;;21.20;3.97;;;;;;;6.51;98.52;100385.72;2011696;29;20113;-62
2022/02/18 04:28:59;;;;;;;23.00;4.70;;;;;;;6.49;98.93;100374.53;2011661;29;20025;-63
2022/02/18 04:30:00;;;;;;;21.70;3.83;;;;;;;6.48;98.68;100362.47;2011753;29;20485;-63
2022/02/18 04:31:00;;;;;;;15.10;3.77;;;;;;;6.49;99.07;100364.16;2011716;29;20435;-62
2022/02/18 04:32:00;;;;;;;14.20;3.43;;;;;;;6.49;98.43;100370.22;2011690;29;20025;-62
2022/02/18 04:33:01;;;;;;;18.83;4.37;;;;;;;6.51;98.31;100377.94;2011715;29;20104;-62
2022/02/18 04:34:02;;;;;;;16.25;3.88;;;;;;;6.52;98.62;100382.22;2011663;29;20033;-62
2022/02/18 04:35:02;;;;;;;18.47;3.90;;;;;;;6.53;97.88;100377.00;2011605;29;20073;-63
2022/02/18 04:36:03;;;;;;;18.77;4.17;;;;;;;6.53;98.28;100373.53;2011644;29;20069;-62
2022/02/18 04:37:03;;;;;;;24.20;5.00;;;;;;;6.54;97.88;100373.50;2011645;29;20290;-63
2022/02/18 04:38:04;;;;;;;24.60;3.40;;;;;;;6.57;97.78;100362.19;2011579;29;20296;-64
2022/02/18 04:39:04;;;;;;;17.50;3.70;;;;;;;6.56;97.19;100365.66;2010979;29;20570;-65
2022/02/18 04:40:05;;;;;;;21.37;4.33;;;;;;;6.57;97.39;100357.00;2010964;29;20098;-62
2022/02/18 04:41:07;;;;;;;14.77;3.67;;;;;;;6.59;97.03;100346.56;2011589;29;20126;-63
2022/02/18 04:42:08;;;;;;;17.80;3.95;;;;;;;6.59;97.21;100344.81;2010873;29;20404;-63